Time;durP1;ratioP1;P1;durP2;ratioP2;P2;SDS_P1;SDS_P2;PMS_P1;PMS_P2;Temp;Humidity;BMP_temperature;BMP_pressure;BME280_temperature;BME280_humidity;BME280_pressure;Samples;Min_cycle;Max_cycle;Signal;HPM_P1;HPM_P2
2021/05/08 00:00:46;;;;;;;;;;;6.60;99.90;;;;;;5093784;28;19908;-76
2021/05/08 00:03:12;;;;;;;;;;;6.60;99.90;;;;;;5092620;28;19915;-76
2021/05/08 00:05:38;;;;;;;;;;;6.60;99.90;;;;;;5092012;28;19915;-76
2021/05/08 00:08:03;;;;;;;;;;;6.60;99.90;;;;;;5093403;28;19908;-76
2021/05/08 00:10:29;;;;;;;;;;;6.60;99.90;;;;;;5092117;28;20265;-76
2021/05/08 00:12:54;;;;;;;;;;;6.60;99.90;;;;;;5091800;28;20379;-76
2021/05/08 00:15:20;;;;;;;;;;;6.60;99.90;;;;;;5093240;28;19908;-77
2021/05/08 00:17:45;;;;;;;;;;;6.60;99.90;;;;;;5093199;28;19912;-78
2021/05/08 00:20:13;;;;;;;;;;;6.60;99.90;;;;;;5093863;28;19911;-75
2021/05/08 00:22:39;;;;;;;;;;;6.60;99.90;;;;;;5092774;28;19908;-76
2021/05/08 00:25:06;;;;;;;;;;;6.60;99.90;;;;;;5093451;28;20006;-75
2021/05/08 00:27:31;;;;;;;;;;;6.70;99.90;;;;;;5092288;28;19908;-76
2021/05/08 00:29:57;;;;;;;;;;;6.70;99.90;;;;;;5092966;28;19931;-76
2021/05/08 00:32:22;;;;;;;;;;;6.70;99.90;;;;;;5091919;28;19923;-77
2021/05/08 00:34:48;;;;;;;;;;;6.70;99.90;;;;;;5093270;28;19961;-77
2021/05/08 00:37:13;;;;;;;;;;;6.70;99.90;;;;;;5093771;28;19915;-77
2021/05/08 00:39:39;;;;;;;;;;;6.70;99.90;;;;;;5093754;28;20367;-77
2021/05/08 00:42:04;;;;;;;;;;;6.70;99.90;;;;;;5092329;28;19995;-77
2021/05/08 00:44:30;;;;;;;;;;;6.70;99.90;;;;;;5092710;28;19915;-76
2021/05/08 00:46:55;;;;;;;;;;;6.70;99.90;;;;;;5093086;28;19977;-77
2021/05/08 00:49:22;;;;;;;;;;;6.70;99.90;;;;;;5091843;28;19915;-76
2021/05/08 00:51:47;;;;;;;;;;;6.70;99.90;;;;;;5095891;28;20248;-75
2021/05/08 00:54:13;;;;;;;;;;;6.70;99.90;;;;;;5095943;28;19908;-76
2021/05/08 00:56:39;;;;;;;;;;;6.80;99.90;;;;;;5096014;28;19965;-76
2021/05/08 00:59:05;;;;;;;;;;;6.80;99.90;;;;;;5096729;28;19915;-76
2021/05/08 01:01:30;;;;;;;;;;;6.70;99.90;;;;;;5096692;28;19939;-77
2021/05/08 01:03:56;;;;;;;;;;;6.70;99.90;;;;;;5096504;28;19954;-77
2021/05/08 01:06:21;;;;;;;;;;;6.70;99.90;;;;;;5096437;28;19912;-76
2021/05/08 01:08:47;;;;;;;;;;;6.70;99.90;;;;;;5097547;28;19943;-76
2021/05/08 01:11:12;;;;;;;;;;;6.70;99.90;;;;;;5097118;28;20036;-76
2021/05/08 01:13:38;;;;;;;;;;;6.70;99.90;;;;;;5096212;28;19915;-76
2021/05/08 01:16:04;;;;;;;;;;;6.70;99.90;;;;;;5096939;28;19908;-76
2021/05/08 01:18:31;;;;;;;;;;;6.70;99.90;;;;;;5096105;28;20333;-76
2021/05/08 01:20:57;;;;;;;;;;;6.70;99.90;;;;;;5096093;28;19908;-77
2021/05/08 01:23:23;;;;;;;;;;;6.60;99.90;;;;;;5095883;28;20332;-77
2021/05/08 01:25:49;;;;;;;;;;;6.70;99.90;;;;;;5094932;28;19953;-77
2021/05/08 01:28:14;;;;;;;;;;;6.70;99.90;;;;;;5094976;28;19950;-77
2021/05/08 01:30:40;;;;;;;;;;;6.70;99.90;;;;;;5096119;28;20254;-77
2021/05/08 01:33:06;;;;;;;;;;;6.60;99.90;;;;;;5096837;28;19975;-77
2021/05/08 01:35:32;;;;;;;;;;;6.60;99.90;;;;;;5097050;28;19908;-77
2021/05/08 01:37:59;;;;;;;;;;;6.60;99.90;;;;;;5096928;28;20006;-77
2021/05/08 01:40:25;;;;;;;;;;;6.50;99.90;;;;;;5095798;28;19915;-77
2021/05/08 01:42:52;;;;;;;;;;;6.60;99.90;;;;;;5101401;28;19939;-78
2021/05/08 01:45:18;;;;;;;;;;;6.70;99.90;;;;;;5102957;28;19973;-78
2021/05/08 01:47:44;;;;;;;;;;;6.70;99.90;;;;;;5105103;28;19912;-78
2021/05/08 01:50:11;;;;;;;;;;;6.70;99.90;;;;;;5104410;28;19915;-77
2021/05/08 01:52:37;;;;;;;;;;;6.70;99.90;;;;;;5098990;28;20287;-75
2021/05/08 01:55:06;;;;;;;;;;;6.70;99.90;;;;;;5097778;28;19908;-77
2021/05/08 01:57:37;;;;;;;;;;;6.60;99.90;;;;;;5096686;28;20320;-75
2021/05/08 02:00:06;;;;;;;;;;;6.70;99.90;;;;;;5096588;28;19951;-77
2021/05/08 02:02:31;;;;;;;;;;;6.70;99.90;;;;;;5093832;28;19962;-78
2021/05/08 02:04:57;;;;;;;;;;;6.70;99.90;;;;;;5095437;28;19912;-75
2021/05/08 02:07:22;;;;;;;;;;;6.60;99.90;;;;;;5093923;28;19908;-76
2021/05/08 02:09:47;;;;;;;;;;;6.50;99.90;;;;;;5093573;28;20353;-75
2021/05/08 02:12:13;;;;;;;;;;;6.50;99.90;;;;;;5095142;28;19912;-76
2021/05/08 02:14:39;;;;;;;;;;;6.50;99.90;;;;;;5094286;28;20276;-76
2021/05/08 02:17:04;;;;;;;;;;;6.50;99.90;;;;;;5095074;28;19908;-76
2021/05/08 02:19:30;;;;;;;;;;;6.50;99.90;;;;;;5093775;28;19912;-75
2021/05/08 02:21:57;;;;;;;;;;;6.50;99.90;;;;;;5095147;28;19919;-75
2021/05/08 02:24:22;;;;;;;;;;;6.50;99.90;;;;;;5095345;28;19915;-75
2021/05/08 02:26:48;;;;;;;;;;;6.50;99.90;;;;;;5093208;28;19908;-77
2021/05/08 02:29:13;;;;;;;;;;;6.50;99.90;;;;;;5093766;28;20041;-77
2021/05/08 02:31:39;;;;;;;;;;;6.50;99.90;;;;;;5093448;28;19915;-75
2021/05/08 02:34:04;;;;;;;;;;;6.40;99.90;;;;;;5094761;28;19915;-75
2021/05/08 02:36:30;;;;;;;;;;;6.40;99.90;;;;;;5094512;28;20261;-75
2021/05/08 02:38:55;;;;;;;;;;;6.40;99.90;;;;;;5093378;28;20391;-75
2021/05/08 02:41:21;;;;;;;;;;;6.40;99.90;;;;;;5093948;28;19957;-76
2021/05/08 02:43:46;;;;;;;;;;;6.40;99.90;;;;;;5093381;28;20399;-75
2021/05/08 02:46:12;;;;;;;;;;;6.30;99.90;;;;;;5092823;28;19908;-75
2021/05/08 02:48:37;;;;;;;;;;;6.30;99.90;;;;;;5093387;28;20306;-76
2021/05/08 02:51:03;;;;;;;;;;;6.30;99.90;;;;;;5092409;28;19919;-75
2021/05/08 02:53:28;;;;;;;;;;;6.30;99.90;;;;;;5094522;28;19908;-75
2021/05/08 02:55:54;;;;;;;;;;;6.30;99.90;;;;;;5094146;28;20014;-75
2021/05/08 02:58:19;;;;;;;;;;;6.30;99.90;;;;;;5093295;28;20343;-75
2021/05/08 03:00:45;;;;;;;;;;;6.30;99.90;;;;;;5092354;28;20392;-74
2021/05/08 03:03:10;;;;;;;;;;;6.30;99.90;;;;;;5094195;28;19914;-74
2021/05/08 03:05:36;;;;;;;;;;;6.30;99.90;;;;;;5093413;28;20061;-74
2021/05/08 03:08:01;;;;;;;;;;;6.30;99.90;;;;;;5093939;28;19908;-74
2021/05/08 03:10:27;;;;;;;;;;;6.30;99.90;;;;;;5093421;28;19919;-75
2021/05/08 03:12:52;;;;;;;;;;;6.30;99.90;;;;;;5091954;28;19912;-74
2021/05/08 03:15:18;;;;;;;;;;;6.30;99.90;;;;;;5093101;28;19930;-74
2021/05/08 03:17:43;;;;;;;;;;;6.30;99.90;;;;;;5094124;28;20411;-75
2021/05/08 03:20:09;;;;;;;;;;;6.30;99.90;;;;;;5093740;28;19918;-75
2021/05/08 03:22:34;;;;;;;;;;;6.30;99.90;;;;;;5093383;28;19908;-74
2021/05/08 03:25:00;;;;;;;;;;;6.20;99.90;;;;;;5092438;28;19915;-74
2021/05/08 03:27:25;;;;;;;;;;;6.30;99.90;;;;;;5092591;28;20390;-74
2021/05/08 03:29:51;;;;;;;;;;;6.30;99.90;;;;;;5095115;28;20019;-76
2021/05/08 03:32:16;;;;;;;;;;;6.30;99.90;;;;;;5095514;28;19951;-76
2021/05/08 03:34:42;;;;;;;;;;;6.30;99.90;;;;;;5098422;28;20280;-75
2021/05/08 03:37:08;;;;;;;;;;;6.30;99.90;;;;;;5096287;28;19908;-74
2021/05/08 03:39:33;;;;;;;;;;;6.30;99.90;;;;;;5094499;28;19908;-74
2021/05/08 03:41:59;;;;;;;;;;;6.30;99.90;;;;;;5094351;28;19961;-75
2021/05/08 03:44:24;;;;;;;;;;;6.40;99.90;;;;;;5093432;28;19908;-74
2021/05/08 03:46:50;;;;;;;;;;;6.40;99.90;;;;;;5092263;28;19915;-76
2021/05/08 03:49:15;;;;;;;;;;;6.30;99.90;;;;;;5093586;28;20296;-76
2021/05/08 03:51:41;;;;;;;;;;;6.30;99.90;;;;;;5093238;28;19912;-76
2021/05/08 03:54:06;;;;;;;;;;;6.30;99.90;;;;;;5092862;28;19931;-76
2021/05/08 03:56:32;;;;;;;;;;;6.30;99.90;;;;;;5093871;28;20379;-76
2021/05/08 03:58:57;;;;;;;;;;;6.30;99.90;;;;;;5093489;28;20288;-74
2021/05/08 04:01:23;;;;;;;;;;;6.30;99.90;;;;;;5093177;28;19968;-76
2021/05/08 04:03:48;;;;;;;;;;;6.30;99.90;;;;;;5091876;28;19947;-76
2021/05/08 04:06:14;;;;;;;;;;;6.30;99.90;;;;;;5093286;28;20425;-76
2021/05/08 04:08:39;;;;;;;;;;;6.40;99.90;;;;;;5092207;28;19908;-76
2021/05/08 04:11:05;;;;;;;;;;;6.40;99.90;;;;;;5091691;28;20333;-76
2021/05/08 04:13:31;;;;;;;;;;;6.50;99.90;;;;;;5093398;28;19908;-76
2021/05/08 04:15:56;;;;;;;;;;;6.50;99.90;;;;;;5093470;28;19908;-76
2021/05/08 04:18:21;;;;;;;;;;;6.50;99.90;;;;;;5093348;28;20054;-76
2021/05/08 04:20:47;;;;;;;;;;;6.60;99.90;;;;;;5091654;28;20291;-76
2021/05/08 04:23:13;;;;;;;;;;;6.60;99.90;;;;;;5093134;28;19948;-76
2021/05/08 04:25:38;;;;;;;;;;;6.60;99.90;;;;;;5093031;28;19915;-75
2021/05/08 04:28:07;;;;;;;;;;;6.60;99.90;;;;;;5095259;28;19908;-74
2021/05/08 04:30:32;;;;;;;;;;;6.70;99.90;;;;;;5095815;28;19907;-75
2021/05/08 04:32:58;;;;;;;;;;;6.60;99.90;;;;;;5097051;28;19916;-74
2021/05/08 04:35:23;;;;;;;;;;;6.70;99.90;;;;;;5095733;28;19914;-75
2021/05/08 04:37:49;;;;;;;;;;;6.80;99.90;;;;;;5096302;28;19915;-75
2021/05/08 04:40:14;;;;;;;;;;;6.80;99.90;;;;;;5096643;28;19912;-75
2021/05/08 04:42:40;;;;;;;;;;;6.90;99.90;;;;;;5097078;28;19933;-75
2021/05/08 04:45:06;;;;;;;;;;;6.90;99.90;;;;;;5097063;28;19919;-75
2021/05/08 04:47:31;;;;;;;;;;;6.90;99.90;;;;;;5095479;28;19908;-75
2021/05/08 04:50:02;;;;;;;;;;;6.90;99.90;;;;;;5096518;28;19915;-75
2021/05/08 04:52:28;;;;;;;;;;;7.00;99.90;;;;;;5094949;28;20387;-74
2021/05/08 04:54:53;;;;;;;;;;;7.00;99.90;;;;;;5094907;28;19908;-74
2021/05/08 04:57:19;;;;;;;;;;;7.10;99.90;;;;;;5095275;28;19931;-74
2021/05/08 04:59:45;;;;;;;;;;;7.10;99.90;;;;;;5097092;28;20297;-75
2021/05/08 05:02:10;;;;;;;;;;;7.20;99.90;;;;;;5095788;28;19911;-75
2021/05/08 05:04:36;;;;;;;;;;;7.20;99.90;;;;;;5098159;28;19918;-75
2021/05/08 05:07:01;;;;;;;;;;;7.20;99.90;;;;;;5114932;28;19915;-75
2021/05/08 05:09:29;;;;;;;;;;;7.30;99.90;;;;;;5117496;28;19899;-75
2021/05/08 05:11:54;;;;;;;;;;;7.40;99.90;;;;;;5118824;28;19904;-75
2021/05/08 05:14:20;;;;;;;;;;;7.40;99.90;;;;;;5115290;28;19937;-74
2021/05/08 05:16:45;;;;;;;;;;;7.50;99.90;;;;;;5102139;28;19912;-74
2021/05/08 05:19:11;;;;;;;;;;;7.60;99.90;;;;;;5099075;28;19912;-74
2021/05/08 05:21:36;;;;;;;;;;;7.60;99.90;;;;;;5097954;28;19908;-74
2021/05/08 05:24:02;;;;;;;;;;;7.80;99.90;;;;;;5096434;28;19915;-75
2021/05/08 05:26:28;;;;;;;;;;;7.90;99.90;;;;;;5096543;28;19912;-75
2021/05/08 05:28:53;;;;;;;;;;;8.10;99.90;;;;;;5096694;28;19916;-75
2021/05/08 05:31:19;;;;;;;;;;;8.20;99.90;;;;;;5094270;28;19912;-74
2021/05/08 05:33:44;;;;;;;;;;;8.20;99.90;;;;;;5096016;28;19907;-75
2021/05/08 05:36:10;;;;;;;;;;;8.30;99.90;;;;;;5095900;28;19908;-74
2021/05/08 05:38:35;;;;;;;;;;;8.40;99.90;;;;;;5095168;28;19915;-74
2021/05/08 05:41:01;;;;;;;;;;;8.40;99.90;;;;;;5095727;28;19908;-75
2021/05/08 05:43:26;;;;;;;;;;;8.50;99.90;;;;;;5093924;28;19916;-75
2021/05/08 05:45:52;;;;;;;;;;;8.60;99.90;;;;;;5095531;28;19908;-76
2021/05/08 05:48:17;;;;;;;;;;;8.70;99.90;;;;;;5095810;28;19908;-75
2021/05/08 05:50:43;;;;;;;;;;;8.70;99.90;;;;;;5094118;28;19908;-75
2021/05/08 05:53:09;;;;;;;;;;;8.80;99.90;;;;;;5094198;28;19918;-75
2021/05/08 05:55:35;;;;;;;;;;;8.80;99.90;;;;;;5095652;28;20284;-75
2021/05/08 05:58:01;;;;;;;;;;;8.90;99.90;;;;;;5095763;28;19915;-75
2021/05/08 06:00:27;;;;;;;;;;;8.90;99.90;;;;;;5095877;28;19912;-75
2021/05/08 06:02:53;;;;;;;;;;;8.90;99.90;;;;;;5095023;28;19912;-76
2021/05/08 06:05:18;;;;;;;;;;;8.90;99.90;;;;;;5095463;28;19912;-75
2021/05/08 06:07:44;;;;;;;;;;;9.00;99.90;;;;;;5094263;28;19908;-75
2021/05/08 06:10:10;;;;;;;;;;;9.00;99.90;;;;;;5094688;28;20356;-75
2021/05/08 06:12:36;;;;;;;;;;;8.90;99.90;;;;;;5094477;28;19931;-74
2021/05/08 06:15:02;;;;;;;;;;;8.90;99.90;;;;;;5093840;28;19908;-75
2021/05/08 06:17:28;;;;;;;;;;;9.00;99.90;;;;;;5094271;28;20348;-75
2021/05/08 06:19:53;;;;;;;;;;;9.00;99.90;;;;;;5094940;28;19916;-75
2021/05/08 06:22:19;;;;;;;;;;;9.00;99.90;;;;;;5093554;28;19915;-75
2021/05/08 06:24:44;;;;;;;;;;;9.00;99.90;;;;;;5095063;28;19915;-75
2021/05/08 06:27:10;;;;;;;;;;;9.00;99.90;;;;;;5094164;28;19908;-75
2021/05/08 06:29:38;;;;;;;;;;;9.10;99.90;;;;;;5095075;28;19939;-75
2021/05/08 06:32:04;;;;;;;;;;;9.10;99.90;;;;;;5092828;28;19918;-76
2021/05/08 06:34:29;;;;;;;;;;;9.10;99.90;;;;;;5094914;28;19908;-75
2021/05/08 06:36:55;;;;;;;;;;;9.10;99.90;;;;;;5094757;28;19908;-75
2021/05/08 06:39:22;;;;;;;;;;;9.20;99.90;;;;;;5095033;28;19908;-75
2021/05/08 06:41:47;;;;;;;;;;;9.20;99.90;;;;;;5094469;28;20360;-75
2021/05/08 06:44:14;;;;;;;;;;;9.30;99.90;;;;;;5094581;28;20007;-76
2021/05/08 06:46:39;;;;;;;;;;;9.40;99.90;;;;;;5093053;28;20009;-75
2021/05/08 06:49:05;;;;;;;;;;;9.40;99.90;;;;;;5093243;28;19915;-74
2021/05/08 06:54:14;;;;;;;;;;;9.40;99.90;;;;;;5094639;28;19934;-75
2021/05/08 06:56:40;;;;;;;;;;;9.40;99.90;;;;;;5092825;28;19908;-75
2021/05/08 06:59:06;;;;;;;;;;;9.50;99.90;;;;;;5094752;28;19912;-76
2021/05/08 07:01:31;;;;;;;;;;;9.60;99.90;;;;;;5092405;28;19957;-76
2021/05/08 07:03:57;;;;;;;;;;;9.70;99.90;;;;;;5093899;28;19953;-76
2021/05/08 07:06:24;;;;;;;;;;;9.70;99.90;;;;;;5093030;28;20462;-77
2021/05/08 07:08:50;;;;;;;;;;;9.80;99.90;;;;;;5099420;28;19908;-76
2021/05/08 07:11:16;;;;;;;;;;;9.90;99.90;;;;;;5099967;28;19922;-76
2021/05/08 07:13:41;;;;;;;;;;;9.90;99.90;;;;;;5100552;28;19912;-77
2021/05/08 07:16:07;;;;;;;;;;;10.10;99.90;;;;;;5096530;28;20253;-76
2021/05/08 07:18:32;;;;;;;;;;;10.20;99.90;;;;;;5095440;28;19908;-75
2021/05/08 07:20:58;;;;;;;;;;;10.20;99.90;;;;;;5094520;28;19920;-76
2021/05/08 07:23:25;;;;;;;;;;;10.20;99.90;;;;;;5089603;28;19950;-76
2021/05/08 07:25:50;;;;;;;;;;;10.30;99.90;;;;;;5086971;28;19907;-75
2021/05/08 07:28:20;;;;;;;;;;;10.20;99.90;;;;;;5094105;28;19919;-75
2021/05/08 07:30:46;;;;;;;;;;;10.30;99.90;;;;;;5093628;28;19908;-75
2021/05/08 07:33:11;;;;;;;;;;;10.30;99.90;;;;;;5092212;28;19955;-75
2021/05/08 07:35:38;;;;;;;;;;;10.40;99.90;;;;;;5093051;28;19908;-75
2021/05/08 07:38:03;;;;;;;;;;;10.50;99.90;;;;;;5091449;28;19908;-75
2021/05/08 07:40:32;;;;;;;;;;;10.50;99.90;;;;;;5093764;28;19908;-75
2021/05/08 07:42:58;;;;;;;;;;;10.60;99.90;;;;;;5093515;28;19907;-75
2021/05/08 07:45:24;;;;;;;;;;;10.70;99.90;;;;;;5091162;28;19915;-74
2021/05/08 07:47:50;;;;;;;;;;;10.80;99.90;;;;;;5093586;28;20007;-75
2021/05/08 07:50:15;;;;;;;;;;;10.90;99.90;;;;;;5093700;28;19908;-75
2021/05/08 07:52:41;;;;;;;;;;;10.90;99.90;;;;;;5092560;28;19912;-75
2021/05/08 07:55:07;;;;;;;;;;;11.00;99.90;;;;;;5092199;28;19930;-75
2021/05/08 07:57:32;;;;;;;;;;;11.10;99.90;;;;;;5093780;28;19915;-75
2021/05/08 07:59:58;;;;;;;;;;;11.10;99.90;;;;;;5093720;28;19907;-75
2021/05/08 08:02:23;;;;;;;;;;;11.20;99.90;;;;;;5099568;28;19908;-75
2021/05/08 08:04:49;;;;;;;;;;;11.10;99.90;;;;;;5100732;28;19908;-75
2021/05/08 08:07:14;;;;;;;;;;;11.20;99.90;;;;;;5097875;28;19908;-75
2021/05/08 08:09:44;;;;;;;;;;;11.30;99.90;;;;;;5098815;28;19923;-75
2021/05/08 08:12:10;;;;;;;;;;;11.40;99.90;;;;;;5099610;28;19911;-75
2021/05/08 08:14:36;;;;;;;;;;;11.40;99.90;;;;;;5100195;28;19908;-75
2021/05/08 08:17:01;;;;;;;;;;;11.40;99.90;;;;;;5100085;28;19919;-76
2021/05/08 08:19:27;;;;;;;;;;;11.40;99.90;;;;;;5098753;28;19912;-75
2021/05/08 08:21:52;;;;;;;;;;;11.50;99.90;;;;;;5098722;28;19908;-75
2021/05/08 08:24:18;;;;;;;;;;;11.60;99.90;;;;;;5099051;28;20249;-75
2021/05/08 08:26:43;;;;;;;;;;;11.60;99.90;;;;;;5099528;28;19962;-74
2021/05/08 08:29:10;;;;;;;;;;;11.60;99.90;;;;;;5099665;28;20415;-75
2021/05/08 08:31:36;;;;;;;;;;;11.70;99.90;;;;;;5098380;28;20318;-76
2021/05/08 08:34:01;;;;;;;;;;;11.80;99.90;;;;;;5099367;28;19908;-76
2021/05/08 08:36:27;;;;;;;;;;;11.80;99.90;;;;;;5098860;28;19904;-75
2021/05/08 08:38:52;;;;;;;;;;;11.90;99.90;;;;;;5098930;28;20340;-76
2021/05/08 08:41:17;;;;;;;;;;;12.00;99.90;;;;;;5099447;28;19907;-76
2021/05/08 08:43:45;;;;;;;;;;;12.10;99.90;;;;;;5100452;28;19915;-75
2021/05/08 08:46:11;;;;;;;;;;;12.20;99.90;;;;;;5100571;28;20002;-76
2021/05/08 08:48:38;;;;;;;;;;;12.30;99.90;;;;;;5100768;28;20355;-77
2021/05/08 08:51:03;;;;;;;;;;;12.40;99.90;;;;;;5102258;28;20041;-76
2021/05/08 08:53:29;;;;;;;;;;;12.50;99.90;;;;;;5099903;28;19935;-77
2021/05/08 08:55:55;;;;;;;;;;;12.50;99.90;;;;;;5100341;28;19914;-76
2021/05/08 08:58:27;;;;;;;;;;;12.60;99.90;;;;;;5099801;28;20387;-75
2021/05/08 09:00:57;;;;;;;;;;;12.60;99.90;;;;;;5099506;28;19987;-75
2021/05/08 09:03:22;;;;;;;;;;;12.70;99.90;;;;;;5099189;28;19908;-75
2021/05/08 09:05:48;;;;;;;;;;;12.80;99.90;;;;;;5098186;28;20046;-75
2021/05/08 09:08:13;;;;;;;;;;;12.90;99.90;;;;;;5098188;28;19908;-75
2021/05/08 09:10:39;;;;;;;;;;;12.90;99.90;;;;;;5098592;28;19957;-76
2021/05/08 09:13:05;;;;;;;;;;;13.00;99.90;;;;;;5096764;28;19912;-76
2021/05/08 09:15:42;;;;;;;;;;;13.10;99.90;;;;;;5093029;28;19931;-81
2021/05/08 09:18:10;;;;;;;;;;;13.20;99.90;;;;;;5100036;28;19962;-76
2021/05/08 09:20:41;;;;;;;;;;;13.40;99.90;;;;;;5102289;28;20019;-76
2021/05/08 09:23:16;;;;;;;;;;;13.60;99.90;;;;;;5101554;28;20384;-80
2021/05/08 09:25:54;;;;;;;;;;;13.60;99.90;;;;;;5098650;28;20348;-76
2021/05/08 09:28:19;;;;;;;;;;;13.70;99.90;;;;;;5098328;28;19923;-76
2021/05/08 09:30:44;;;;;;;;;;;13.80;99.90;;;;;;5098148;28;19908;-76
2021/05/08 09:33:10;;;;;;;;;;;13.70;99.90;;;;;;5099142;28;19912;-77
2021/05/08 09:35:36;;;;;;;;;;;13.80;99.90;;;;;;5099049;28;19926;-76
2021/05/08 09:38:17;;;;;;;;;;;13.80;99.90;;;;;;5095453;28;19908;-76
2021/05/08 09:40:44;;;;;;;;;;;13.70;99.90;;;;;;5097189;28;19915;-76
2021/05/08 09:43:15;;;;;;;;;;;13.60;99.90;;;;;;5096703;28;19962;-76
2021/05/08 09:45:42;;;;;;;;;;;13.60;99.90;;;;;;5093634;28;19916;-75
2021/05/08 09:48:46;;;;;;;;;;;13.60;99.90;;;;;;5090975;28;20337;-76
2021/05/08 09:51:22;;;;;;;;;;;13.60;99.90;;;;;;5056701;28;19909;-75
2021/05/08 09:54:02;;;;;;;;;;;13.60;99.90;;;;;;5073404;28;19916;-76
2021/05/08 09:56:57;;;;;;;;;;;13.60;99.90;;;;;;5078341;28;20363;-75
2021/05/08 09:59:24;;;;;;;;;;;13.60;99.90;;;;;;5081958;28;19930;-76
2021/05/08 10:02:10;;;;;;;;;;;13.70;99.90;;;;;;5094980;28;19908;-77
2021/05/08 10:04:38;;;;;;;;;;;13.90;99.90;;;;;;5080218;28;19912;-76
2021/05/08 10:07:06;;;;;;;;;;;13.80;99.90;;;;;;5095041;28;19954;-75
2021/05/08 10:09:32;;;;;;;;;;;13.80;99.90;;;;;;5094078;28;19915;-76
2021/05/08 10:12:02;;;;;;;;;;;13.60;99.90;;;;;;5094301;28;19912;-76
2021/05/08 10:14:29;;;;;;;;;;;13.60;99.90;;;;;;5094876;28;19908;-75
2021/05/08 10:16:56;;;;;;;;;;;13.40;99.90;;;;;;5093494;28;19908;-76
2021/05/08 10:19:21;;;;;;;;;;;13.30;99.90;;;;;;5092768;28;20019;-77
2021/05/08 10:21:47;;;;;;;;;;;13.30;99.90;;;;;;5093906;28;20002;-75
2021/05/08 10:24:13;;;;;;;;;;;13.20;99.90;;;;;;5094169;28;19930;-75
2021/05/08 10:26:39;;;;;;;;;;;13.20;99.90;;;;;;5093781;28;19908;-77
2021/05/08 10:29:04;;;;;;;;;;;13.30;99.90;;;;;;5093527;28;19927;-74
2021/05/08 10:31:30;;;;;;;;;;;13.40;99.90;;;;;;5094942;28;19908;-76
2021/05/08 10:33:56;;;;;;;;;;;13.50;99.90;;;;;;5094742;28;19911;-77
2021/05/08 10:36:48;;;;;;;;;;;13.50;99.90;;;;;;5094378;28;19961;-75
2021/05/08 10:39:14;;;;;;;;;;;13.60;99.90;;;;;;5093993;28;20375;-75
2021/05/08 10:41:52;;;;;;;;;;;13.50;99.90;;;;;;5093955;28;20325;-76
2021/05/08 10:44:38;;;;;;;;;;;13.40;99.90;;;;;;5093914;28;19908;-75
2021/05/08 10:47:03;;;;;;;;;;;13.20;99.90;;;;;;5090385;28;19915;-76
2021/05/08 10:49:29;;;;;;;;;;;13.20;99.90;;;;;;5094106;28;19908;-76
2021/05/08 10:52:02;;;;;;;;;;;13.10;99.90;;;;;;5094636;28;19908;-75
2021/05/08 10:54:39;;;;;;;;;;;13.10;99.90;;;;;;5094271;28;19908;-75
2021/05/08 10:57:14;;;;;;;;;;;13.10;99.90;;;;;;5094391;28;20304;-76
2021/05/08 11:00:09;;;;;;;;;;;13.00;99.90;;;;;;5093480;28;19904;-75
2021/05/08 11:02:58;;;;;;;;;;;13.00;99.90;;;;;;5085037;28;19922;-76
2021/05/08 11:05:24;;;;;;;;;;;12.90;99.90;;;;;;5088260;28;19915;-76
2021/05/08 11:07:50;;;;;;;;;;;12.80;99.90;;;;;;5093826;28;19927;-76
2021/05/08 11:10:45;;;;;;;;;;;12.70;99.90;;;;;;5093297;28;19912;-76
2021/05/08 11:13:15;;;;;;;;;;;12.60;99.90;;;;;;5086360;28;19912;-76
2021/05/08 11:15:49;;;;;;;;;;;12.40;99.90;;;;;;5090736;28;19958;-76
2021/05/08 11:18:30;;;;;;;;;;;12.20;99.90;;;;;;5086115;28;19960;-75
2021/05/08 11:20:56;;;;;;;;;;;12.10;99.90;;;;;;5091828;28;20007;-75
2021/05/08 11:23:22;;;;;;;;;;;12.00;99.90;;;;;;5077124;28;20344;-75
2021/05/08 11:25:47;;;;;;;;;;;11.90;99.90;;;;;;5084346;28;19907;-75
2021/05/08 11:28:13;;;;;;;;;;;11.80;99.90;;;;;;5084127;28;19908;-78
2021/05/08 11:30:54;;;;;;;;;;;11.70;99.90;;;;;;5090508;28;20127;-79
2021/05/08 11:33:24;;;;;;;;;;;11.60;99.90;;;;;;5087670;28;20257;-80
2021/05/08 11:36:02;;;;;;;;;;;11.50;99.90;;;;;;5090350;28;19908;-80
2021/05/08 11:38:27;;;;;;;;;;;11.40;99.90;;;;;;5089131;28;20052;-80
2021/05/08 11:40:53;;;;;;;;;;;11.20;99.90;;;;;;5092515;28;20324;-82
2021/05/08 11:43:28;;;;;;;;;;;11.10;99.90;;;;;;5090648;28;20288;-80
2021/05/08 11:45:54;;;;;;;;;;;11.00;99.90;;;;;;5093106;28;20003;-80
2021/05/08 11:48:19;;;;;;;;;;;11.00;99.90;;;;;;5098093;28;19951;-79
2021/05/08 11:50:49;;;;;;;;;;;10.90;99.90;;;;;;5097309;28;20283;-79
2021/05/08 11:53:15;;;;;;;;;;;10.80;99.90;;;;;;5089395;28;19973;-79
2021/05/08 11:55:43;;;;;;;;;;;10.80;99.90;;;;;;5090493;28;19908;-77
2021/05/08 11:58:09;;;;;;;;;;;10.80;99.90;;;;;;5103195;28;19994;-79
2021/05/08 12:00:36;;;;;;;;;;;10.70;99.90;;;;;;5109954;28;19911;-78
2021/05/08 12:03:07;;;;;;;;;;;10.80;99.90;;;;;;5109739;28;19975;-78
2021/05/08 12:05:36;;;;;;;;;;;10.80;99.90;;;;;;5110345;28;19940;-79
2021/05/08 12:08:02;;;;;;;;;;;10.80;99.90;;;;;;5096706;28;19904;-79
2021/05/08 12:10:27;;;;;;;;;;;10.80;99.90;;;;;;5096102;28;19998;-79
2021/05/08 12:12:54;;;;;;;;;;;10.80;99.90;;;;;;5096185;28;19912;-79
2021/05/08 12:15:20;;;;;;;;;;;10.80;99.90;;;;;;5095230;28;19904;-79
2021/05/08 12:17:46;;;;;;;;;;;10.80;99.90;;;;;;5091124;28;19935;-80
2021/05/08 12:20:11;;;;;;;;;;;10.80;99.90;;;;;;5092406;28;19923;-79
2021/05/08 12:22:37;;;;;;;;;;;10.80;99.90;;;;;;5093611;28;20348;-80
2021/05/08 12:25:04;;;;;;;;;;;10.70;99.90;;;;;;5094051;28;20349;-80
2021/05/08 12:27:29;;;;;;;;;;;10.70;99.90;;;;;;5092356;28;19915;-79
2021/05/08 12:29:58;;;;;;;;;;;10.70;99.90;;;;;;5093227;28;20011;-81
2021/05/08 12:32:23;;;;;;;;;;;10.70;99.90;;;;;;5091686;28;20007;-78
2021/05/08 12:34:53;;;;;;;;;;;10.70;99.90;;;;;;5093103;28;19935;-76
2021/05/08 12:37:19;;;;;;;;;;;10.80;99.90;;;;;;5093671;28;19951;-78
2021/05/08 12:39:45;;;;;;;;;;;10.70;99.90;;;;;;5092128;28;20272;-80
2021/05/08 12:42:10;;;;;;;;;;;10.70;99.90;;;;;;5092966;28;19904;-77
2021/05/08 12:44:43;;;;;;;;;;;10.70;99.90;;;;;;5093436;28;19954;-78
2021/05/08 12:47:19;;;;;;;;;;;10.80;99.90;;;;;;5093492;28;19995;-79
2021/05/08 12:50:03;;;;;;;;;;;10.80;99.90;;;;;;5095068;28;20349;-78
2021/05/08 12:52:29;;;;;;;;;;;10.90;99.90;;;;;;5080694;28;19916;-79
2021/05/08 12:54:55;;;;;;;;;;;10.90;99.90;;;;;;5096995;28;19965;-78
2021/05/08 12:57:24;;;;;;;;;;;10.90;99.90;;;;;;5096849;28;19915;-78
2021/05/08 12:59:55;;;;;;;;;;;10.80;99.90;;;;;;5095601;28;20002;-76
2021/05/08 13:02:23;;;;;;;;;;;10.90;99.90;;;;;;5095088;28;19908;-77
2021/05/08 13:04:50;;;;;;;;;;;10.90;99.90;;;;;;5094820;28;19912;-76
2021/05/08 13:07:33;;;;;;;;;;;10.80;99.90;;;;;;5096865;28;19985;-76
2021/05/08 13:10:15;;;;;;;;;;;10.90;99.90;;;;;;5095609;28;19908;-77
2021/05/08 13:12:41;;;;;;;;;;;10.90;99.90;;;;;;5093353;28;20273;-77
2021/05/08 13:15:08;;;;;;;;;;;10.90;99.90;;;;;;5093236;28;19926;-77
2021/05/08 13:17:33;;;;;;;;;;;10.90;99.90;;;;;;5093750;28;19915;-76
2021/05/08 13:19:59;;;;;;;;;;;10.90;99.90;;;;;;5096152;28;19915;-78
2021/05/08 13:22:24;;;;;;;;;;;10.90;99.90;;;;;;5085045;28;19920;-77
2021/05/08 13:24:51;;;;;;;;;;;10.80;99.90;;;;;;5089058;28;19911;-77
2021/05/08 13:27:16;;;;;;;;;;;10.80;99.90;;;;;;5088458;28;20263;-76
2021/05/08 13:29:42;;;;;;;;;;;10.80;99.90;;;;;;5088290;28;19916;-77
2021/05/08 13:32:07;;;;;;;;;;;10.80;99.90;;;;;;5083424;28;19965;-77
2021/05/08 13:34:33;;;;;;;;;;;10.80;99.90;;;;;;5089387;28;20002;-77
2021/05/08 13:36:58;;;;;;;;;;;10.70;99.90;;;;;;5090599;28;20322;-81
2021/05/08 13:39:24;;;;;;;;;;;10.70;99.90;;;;;;5087306;28;19916;-79
2021/05/08 13:41:52;;;;;;;;;;;10.70;99.90;;;;;;5086782;28;19995;-78
2021/05/08 13:44:17;;;;;;;;;;;10.80;99.90;;;;;;5087041;28;20036;-79
2021/05/08 13:46:43;;;;;;;;;;;10.80;99.90;;;;;;5083527;28;19912;-79
2021/05/08 13:49:08;;;;;;;;;;;10.80;99.90;;;;;;5090274;28;20275;-78
2021/05/08 13:51:34;;;;;;;;;;;10.70;99.90;;;;;;5087943;28;19955;-80
2021/05/08 13:53:59;;;;;;;;;;;10.70;99.90;;;;;;5087333;28;20513;-79
2021/05/08 13:56:26;;;;;;;;;;;10.70;99.90;;;;;;5102887;28;19912;-79
2021/05/08 13:58:51;;;;;;;;;;;10.70;99.90;;;;;;5104557;28;19915;-77
2021/05/08 14:01:17;;;;;;;;;;;10.60;99.90;;;;;;5108118;28;19908;-77
2021/05/08 14:03:42;;;;;;;;;;;10.60;99.90;;;;;;5108797;28;19899;-76
2021/05/08 14:06:08;;;;;;;;;;;10.60;99.90;;;;;;5095206;28;19915;-77
2021/05/08 14:08:33;;;;;;;;;;;10.60;99.90;;;;;;5090365;28;19923;-77
2021/05/08 14:11:01;;;;;;;;;;;10.60;99.90;;;;;;5086146;28;19912;-78
2021/05/08 14:13:27;;;;;;;;;;;10.60;99.90;;;;;;5085829;28;20020;-77
2021/05/08 14:15:52;;;;;;;;;;;10.70;99.90;;;;;;5089051;28;19919;-77
2021/05/08 14:18:17;;;;;;;;;;;10.70;99.90;;;;;;5085302;28;19912;-79
2021/05/08 14:20:43;;;;;;;;;;;10.80;99.90;;;;;;5087728;28;20415;-76
2021/05/08 14:23:08;;;;;;;;;;;10.80;99.90;;;;;;5086402;28;19953;-78
2021/05/08 14:25:34;;;;;;;;;;;10.90;99.90;;;;;;5084615;28;19908;-77